createdAt,value
2022-10-11T00:00:31.319Z,15.50
2022-10-11T00:02:59.288Z,15.50
2022-10-11T00:05:27.652Z,15.50
2022-10-11T00:07:55.649Z,15.50
2022-10-11T00:10:23.963Z,15.50
2022-10-11T00:12:53.132Z,15.50
2022-10-11T00:15:23.426Z,15.50
2022-10-11T00:17:51.608Z,15.50
2022-10-11T00:20:19.788Z,15.50
2022-10-11T00:22:49.171Z,15.50
2022-10-11T00:25:17.724Z,15.50
2022-10-11T00:27:46.251Z,15.40
2022-10-11T00:30:15.168Z,15.40
2022-10-11T00:32:44.437Z,15.50
2022-10-11T00:35:12.370Z,15.50
2022-10-11T00:37:40.780Z,15.50
2022-10-11T00:40:13.598Z,15.50
2022-10-11T00:42:41.609Z,15.50
2022-10-11T00:45:59.658Z,15.50
2022-10-11T00:48:34.590Z,15.50
2022-10-11T00:51:06.007Z,15.50
2022-10-11T00:53:35.044Z,15.50
2022-10-11T00:56:08.129Z,15.50
2022-10-11T00:58:38.300Z,15.50
2022-10-11T01:01:06.858Z,15.50
2022-10-11T01:03:38.855Z,15.50
2022-10-11T01:06:07.792Z,15.50
2022-10-11T01:08:36.105Z,15.50
2022-10-11T01:11:04.374Z,15.50
2022-10-11T01:13:42.828Z,15.50
2022-10-11T01:16:16.328Z,15.50
2022-10-11T01:18:52.076Z,15.50
2022-10-11T01:21:34.864Z,15.50
2022-10-11T01:24:23.614Z,15.50
2022-10-11T01:27:30.423Z,15.50
2022-10-11T01:30:07.690Z,15.50
2022-10-11T01:32:44.591Z,15.50
2022-10-11T01:35:21.864Z,15.50
2022-10-11T01:37:58.161Z,15.50
2022-10-11T01:40:32.463Z,15.50
2022-10-11T01:43:01.764Z,15.50
2022-10-11T01:45:30.697Z,15.50
2022-10-11T01:48:09.508Z,15.50
2022-10-11T01:50:42.235Z,15.50
2022-10-11T01:53:28.825Z,15.50
2022-10-11T01:56:06.620Z,15.50
2022-10-11T01:58:44.220Z,15.50
2022-10-11T02:01:25.337Z,15.40
2022-10-11T02:04:04.092Z,15.40
2022-10-11T02:06:37.307Z,15.40
2022-10-11T02:09:14.528Z,15.40
2022-10-11T02:11:42.750Z,15.40
2022-10-11T02:14:13.684Z,15.40
2022-10-11T02:16:47.365Z,15.40
2022-10-11T02:19:20.680Z,15.30
2022-10-11T02:21:52.755Z,15.30
2022-10-11T02:24:27.168Z,15.30
2022-10-11T02:26:57.822Z,15.30
2022-10-11T02:29:28.824Z,15.30
2022-10-11T02:31:59.442Z,15.30
2022-10-11T02:34:32.516Z,15.30
2022-10-11T02:37:06.856Z,15.20
2022-10-11T02:39:40.849Z,15.20
2022-10-11T02:42:14.987Z,15.20
2022-10-11T02:44:46.331Z,15.20
2022-10-11T02:47:15.218Z,15.20
2022-10-11T02:49:44.505Z,15.20
2022-10-11T02:52:12.443Z,15.20
2022-10-11T02:54:40.392Z,15.20
2022-10-11T02:57:08.260Z,15.20
2022-10-11T02:59:36.292Z,15.20
2022-10-11T03:02:04.246Z,15.20
2022-10-11T03:04:32.180Z,15.10
2022-10-11T03:07:01.436Z,15.10
2022-10-11T03:09:29.318Z,15.10
2022-10-11T03:11:57.176Z,15.10
2022-10-11T03:14:25.294Z,15.10
2022-10-11T03:16:53.192Z,15.10
2022-10-11T03:19:21.224Z,15.10
2022-10-11T03:21:49.213Z,15.10
2022-10-11T03:24:18.590Z,15.00
2022-10-11T03:26:46.551Z,15.00
2022-10-11T03:29:14.482Z,15.00
2022-10-11T03:31:42.411Z,15.00
2022-10-11T03:34:10.542Z,15.00
2022-10-11T03:36:38.440Z,15.00
2022-10-11T03:39:06.376Z,14.90
2022-10-11T03:41:35.818Z,14.90
2022-10-11T03:44:04.123Z,14.90
2022-10-11T03:46:32.027Z,14.90
2022-10-11T03:49:00.088Z,14.90
2022-10-11T03:51:28.098Z,14.90
2022-10-11T03:53:56.014Z,14.90
2022-10-11T03:56:23.956Z,14.90
2022-10-11T03:58:53.193Z,14.90
2022-10-11T04:01:21.711Z,14.90
2022-10-11T04:03:49.649Z,14.90
2022-10-11T04:06:17.634Z,14.80
2022-10-11T04:08:45.625Z,14.80
2022-10-11T04:11:13.528Z,14.80
2022-10-11T04:13:41.444Z,14.80
2022-10-11T04:16:10.720Z,14.80
2022-10-11T04:18:38.592Z,14.80
2022-10-11T04:21:06.861Z,14.70
2022-10-11T04:23:35.239Z,14.70
2022-10-11T04:26:07.067Z,14.70
2022-10-11T04:28:36.227Z,14.60
2022-10-11T04:31:05.121Z,14.60
2022-10-11T04:33:34.529Z,14.60
2022-10-11T04:36:02.890Z,14.50
2022-10-11T04:38:31.118Z,14.50
2022-10-11T04:41:07.257Z,14.50
2022-10-11T04:43:35.355Z,14.40
2022-10-11T04:46:03.431Z,14.40
2022-10-11T04:48:32.019Z,14.40
2022-10-11T04:51:01.339Z,14.40
2022-10-11T04:53:29.503Z,14.30
2022-10-11T04:56:00.963Z,14.30
2022-10-11T04:58:29.563Z,14.30
2022-10-11T05:00:58.298Z,14.20
2022-10-11T05:03:26.618Z,14.20
2022-10-11T05:05:54.712Z,14.10
2022-10-11T05:08:24.330Z,14.10
2022-10-11T05:10:59.823Z,14.10
2022-10-11T05:13:28.585Z,14.20
2022-10-11T05:15:56.496Z,14.20
2022-10-11T05:18:25.146Z,14.20
2022-10-11T05:21:00.089Z,14.20
2022-10-11T05:23:29.745Z,14.20
2022-10-11T05:25:57.655Z,14.20
2022-10-11T05:28:25.779Z,14.20
2022-10-11T05:30:53.815Z,14.10
2022-10-11T05:33:22.439Z,14.10
2022-10-11T05:35:50.476Z,14.10
2022-10-11T05:38:18.548Z,14.10
2022-10-11T05:40:47.954Z,14.10
2022-10-11T05:43:16.214Z,14.10
2022-10-11T05:45:45.444Z,14.10
2022-10-11T05:48:14.022Z,14.10
2022-10-11T05:50:42.288Z,14.10
2022-10-11T05:53:10.323Z,14.10
2022-10-11T05:55:38.724Z,14.10
2022-10-11T05:58:09.060Z,14.10
2022-10-11T06:00:38.051Z,14.10
2022-10-11T06:03:06.465Z,14.10
2022-10-11T06:05:35.946Z,14.10
2022-10-11T06:08:04.644Z,14.10
2022-10-11T06:10:32.755Z,14.10
2022-10-11T06:13:00.799Z,14.10
2022-10-11T06:15:30.169Z,14.10
2022-10-11T06:17:59.198Z,14.10
2022-10-11T06:20:27.735Z,14.10
2022-10-11T06:22:55.704Z,14.10
2022-10-11T06:25:23.644Z,14.00
2022-10-11T06:27:51.638Z,14.00
2022-10-11T06:30:19.701Z,14.00
2022-10-11T06:32:48.949Z,14.00
2022-10-11T06:35:17.032Z,14.10
2022-10-11T06:37:44.933Z,14.00
2022-10-11T06:40:13.299Z,13.90
2022-10-11T06:42:41.324Z,13.90
2022-10-11T06:45:09.955Z,13.90
2022-10-11T06:47:37.893Z,13.90
2022-10-11T06:50:07.948Z,13.90
2022-10-11T06:52:35.859Z,13.90
2022-10-11T06:55:03.949Z,13.90
2022-10-11T06:57:31.906Z,13.90
2022-10-11T06:59:59.822Z,14.00
2022-10-11T07:02:27.805Z,14.00
2022-10-11T07:04:55.732Z,14.00
2022-10-11T07:07:25.230Z,14.00
2022-10-11T07:09:53.190Z,14.00
2022-10-11T07:12:21.109Z,14.10
2022-10-11T07:14:49.039Z,14.00
2022-10-11T07:17:16.972Z,14.00
2022-10-11T07:19:44.896Z,14.00
2022-10-11T07:22:12.826Z,14.00
2022-10-11T07:24:42.064Z,14.10
2022-10-11T07:27:09.995Z,14.10
2022-10-11T07:29:37.920Z,14.00
2022-10-11T07:32:06.843Z,14.00
2022-10-11T07:34:34.829Z,14.10
2022-10-11T07:37:02.838Z,14.10
2022-10-11T07:39:31.558Z,14.10
2022-10-11T07:42:00.882Z,14.10
2022-10-11T07:44:28.771Z,14.10
2022-10-11T07:46:56.877Z,14.00
2022-10-11T07:49:24.877Z,14.00
2022-10-11T07:51:52.856Z,14.10
2022-10-11T07:54:20.807Z,14.00
2022-10-11T07:56:48.749Z,14.10
2022-10-11T07:59:18.049Z,14.00
2022-10-11T08:01:46.701Z,14.10
2022-10-11T08:04:14.816Z,14.10
2022-10-11T08:06:42.850Z,14.10
2022-10-11T08:09:12.089Z,14.10
2022-10-11T08:11:40.647Z,14.10
2022-10-11T08:14:11.189Z,14.10
2022-10-11T08:16:40.966Z,14.00
2022-10-11T08:19:08.952Z,14.00
2022-10-11T08:21:37.041Z,14.10
2022-10-11T08:24:06.037Z,14.00
2022-10-11T08:26:34.888Z,14.00
2022-10-11T08:29:03.929Z,13.90
2022-10-11T08:31:32.735Z,13.90
2022-10-11T08:34:02.757Z,13.90
2022-10-11T08:36:30.677Z,14.00
2022-10-11T08:38:59.043Z,14.00
2022-10-11T08:41:37.373Z,14.00
2022-10-11T08:44:16.976Z,13.90
2022-10-11T08:46:51.460Z,13.90
2022-10-11T08:49:25.608Z,13.90
2022-10-11T08:52:00.091Z,13.90
2022-10-11T08:54:36.147Z,13.90
2022-10-11T08:57:06.654Z,13.90
2022-10-11T08:59:40.474Z,13.90
2022-10-11T09:02:20.976Z,13.90
2022-10-11T09:04:53.256Z,13.90
2022-10-11T09:07:32.439Z,14.00
2022-10-11T09:10:17.893Z,14.00
2022-10-11T09:12:55.611Z,14.00
2022-10-11T09:15:31.839Z,14.00
2022-10-11T09:18:20.457Z,14.00
2022-10-11T09:21:11.799Z,13.90
2022-10-11T09:23:54.300Z,14.00
2022-10-11T09:26:28.989Z,14.00
2022-10-11T09:29:05.277Z,14.00
2022-10-11T09:31:33.967Z,14.00
2022-10-11T09:34:11.223Z,14.10
2022-10-11T09:36:47.834Z,14.10
2022-10-11T09:39:26.352Z,14.10
2022-10-11T09:41:59.997Z,14.10
2022-10-11T09:44:30.005Z,14.10
2022-10-11T09:46:59.249Z,14.10
2022-10-11T09:49:33.367Z,14.20
2022-10-11T09:52:04.733Z,14.20
2022-10-11T09:54:40.731Z,14.20
2022-10-11T09:57:20.434Z,14.20
2022-10-11T10:00:05.261Z,14.20
2022-10-11T10:02:44.809Z,14.20
2022-10-11T10:05:23.933Z,14.20
2022-10-11T10:08:22.492Z,14.20
2022-10-11T10:10:59.885Z,14.30
2022-10-11T10:13:35.926Z,14.30
2022-10-11T10:16:05.646Z,14.40
2022-10-11T10:18:36.270Z,14.40
2022-10-11T10:21:07.925Z,14.40
2022-10-11T10:23:38.554Z,14.40
2022-10-11T10:26:13.196Z,14.40
2022-10-11T10:28:59.424Z,14.50
2022-10-11T10:31:49.172Z,14.60
2022-10-11T10:34:27.950Z,14.60
2022-10-11T10:36:59.096Z,14.60
2022-10-11T10:39:32.476Z,14.60
2022-10-11T10:42:02.248Z,14.70
2022-10-11T10:44:30.257Z,14.80
2022-10-11T10:47:09.511Z,14.80
2022-10-11T10:49:59.579Z,14.80
2022-10-11T10:52:55.872Z,14.90
2022-10-11T10:55:29.323Z,15.00
2022-10-11T10:58:15.079Z,15.00
2022-10-11T11:00:48.597Z,15.00
2022-10-11T11:03:23.294Z,15.10
2022-10-11T11:06:00.843Z,15.10
2022-10-11T11:08:47.923Z,15.10
2022-10-11T11:11:39.953Z,15.20
2022-10-11T11:14:18.867Z,15.20
2022-10-11T11:16:55.419Z,15.20
2022-10-11T11:19:34.386Z,15.30
2022-10-11T11:22:10.599Z,15.30
2022-10-11T11:24:47.920Z,15.40
2022-10-11T11:27:30.130Z,15.40
2022-10-11T11:30:04.470Z,15.40
2022-10-11T11:32:45.669Z,15.40
2022-10-11T11:35:20.950Z,15.40
2022-10-11T11:37:55.578Z,15.50
2022-10-11T11:40:35.081Z,15.60
2022-10-11T11:43:08.695Z,15.60
2022-10-11T11:45:45.794Z,15.70
2022-10-11T11:48:18.728Z,15.70
2022-10-11T11:50:52.965Z,15.70
2022-10-11T11:53:31.069Z,15.70
2022-10-11T11:56:05.070Z,15.80
2022-10-11T11:58:42.526Z,15.80
2022-10-11T12:01:26.487Z,15.80
2022-10-11T12:04:02.272Z,15.80
2022-10-11T12:06:32.436Z,15.80
2022-10-11T12:09:05.670Z,15.70
2022-10-11T12:11:49.652Z,15.70
2022-10-11T12:14:30.481Z,15.70
2022-10-11T12:17:18.466Z,15.70
2022-10-11T12:20:23.726Z,15.70
2022-10-11T12:23:00.160Z,15.80
2022-10-11T12:25:35.151Z,15.80
2022-10-11T12:28:25.706Z,15.80
2022-10-11T12:31:05.991Z,15.80
2022-10-11T12:33:50.285Z,15.90
2022-10-11T12:36:36.274Z,15.90
2022-10-11T12:39:42.692Z,15.90
2022-10-11T12:42:22.180Z,16.00
2022-10-11T12:45:23.651Z,16.00
2022-10-11T12:48:01.967Z,16.00
2022-10-11T12:50:34.678Z,16.00
2022-10-11T12:53:13.046Z,16.00
2022-10-11T12:55:50.361Z,16.00
2022-10-11T12:58:38.284Z,16.10
2022-10-11T13:01:17.464Z,16.20
2022-10-11T13:03:53.013Z,16.20
2022-10-11T13:06:24.909Z,16.20
2022-10-11T13:08:56.915Z,16.20
2022-10-11T13:11:31.520Z,16.20
2022-10-11T13:14:01.909Z,16.20
2022-10-11T13:16:43.415Z,16.20
2022-10-11T13:19:15.748Z,16.30
2022-10-11T13:21:43.903Z,16.30
2022-10-11T13:24:15.600Z,16.30
2022-10-11T13:26:45.425Z,16.40
2022-10-11T13:29:17.743Z,16.40
2022-10-11T13:31:47.743Z,16.40
2022-10-11T13:34:22.343Z,16.40
2022-10-11T13:36:56.618Z,16.40
2022-10-11T13:39:31.347Z,16.40
2022-10-11T13:42:00.492Z,16.40
2022-10-11T13:44:28.825Z,16.40
2022-10-11T13:46:56.972Z,16.40
2022-10-11T13:49:36.952Z,16.40
2022-10-11T13:52:18.520Z,16.50
2022-10-11T13:55:11.499Z,16.50
2022-10-11T13:57:41.222Z,16.50
2022-10-11T14:00:26.884Z,16.50
2022-10-11T14:02:59.031Z,16.50
2022-10-11T14:05:33.701Z,16.50
2022-10-11T14:08:04.790Z,16.50
2022-10-11T14:10:33.411Z,16.50
2022-10-11T14:13:22.973Z,16.50
2022-10-11T14:16:01.005Z,16.50
2022-10-11T14:18:45.377Z,16.50
2022-10-11T14:21:48.347Z,16.50
2022-10-11T14:24:17.850Z,16.50
2022-10-11T14:26:48.690Z,16.50
2022-10-11T14:29:22.252Z,16.40
2022-10-11T14:31:50.846Z,16.40
2022-10-11T14:34:22.601Z,16.50
2022-10-11T14:36:53.529Z,16.50
2022-10-11T14:39:23.827Z,16.40
2022-10-11T14:41:53.252Z,16.40
2022-10-11T14:44:22.350Z,16.40
2022-10-11T14:46:54.109Z,16.40
2022-10-11T14:49:25.224Z,16.40
2022-10-11T14:51:56.457Z,16.40
2022-10-11T14:54:26.386Z,16.40
2022-10-11T14:56:55.892Z,16.40
2022-10-11T14:59:26.709Z,16.40
2022-10-11T15:01:54.965Z,16.40
2022-10-11T15:04:24.186Z,16.40
2022-10-11T15:06:54.779Z,16.40
2022-10-11T15:09:23.853Z,16.40
2022-10-11T15:11:54.155Z,16.40
2022-10-11T15:14:22.951Z,16.40
2022-10-11T15:16:51.136Z,16.40
2022-10-11T15:19:21.211Z,16.40
2022-10-11T15:21:49.694Z,16.40
2022-10-11T15:24:20.801Z,16.40
2022-10-11T15:26:50.486Z,16.40
2022-10-11T15:29:20.386Z,16.40
2022-10-11T15:31:49.244Z,16.30
2022-10-11T15:34:18.575Z,16.40
2022-10-11T15:36:46.868Z,16.40
2022-10-11T15:39:26.264Z,16.40
2022-10-11T15:41:54.465Z,16.30
2022-10-11T15:44:22.367Z,16.30
2022-10-11T15:46:50.473Z,16.30
2022-10-11T15:49:18.756Z,16.30
2022-10-11T15:51:46.966Z,16.30
2022-10-11T15:54:14.932Z,16.30
2022-10-11T15:56:44.309Z,16.30
2022-10-11T15:59:12.645Z,16.30
2022-10-11T16:01:40.756Z,16.20
2022-10-11T16:04:08.742Z,16.20
2022-10-11T16:06:36.710Z,16.20
2022-10-11T16:09:04.866Z,16.20
2022-10-11T16:11:32.989Z,16.20
2022-10-11T16:14:02.498Z,16.20
2022-10-11T16:16:30.420Z,16.10
2022-10-11T16:18:58.309Z,16.10
2022-10-11T16:21:26.381Z,16.10
2022-10-11T16:23:54.425Z,16.10
2022-10-11T16:26:22.424Z,16.10
2022-10-11T16:28:50.523Z,16.10
2022-10-11T16:31:21.025Z,16.00
2022-10-11T16:33:50.121Z,16.00
2022-10-11T16:36:40.564Z,16.00
2022-10-11T16:39:12.044Z,16.00
2022-10-11T16:41:40.347Z,16.00
2022-10-11T16:44:08.470Z,16.00
2022-10-11T16:46:37.732Z,16.00
2022-10-11T16:49:06.259Z,16.00
2022-10-11T16:51:34.515Z,16.00
2022-10-11T16:54:02.582Z,15.90
2022-10-11T16:56:32.556Z,15.90
2022-10-11T16:59:04.097Z,15.90
2022-10-11T17:01:32.219Z,15.80
2022-10-11T17:04:01.554Z,15.80
2022-10-11T17:06:29.629Z,15.80
2022-10-11T17:08:57.884Z,15.70
2022-10-11T17:11:25.964Z,15.70
2022-10-11T17:13:54.293Z,15.60
2022-10-11T17:16:22.659Z,15.60
2022-10-11T17:18:50.938Z,15.50
2022-10-11T17:21:21.587Z,15.40
2022-10-11T17:23:49.928Z,15.40
2022-10-11T17:26:21.486Z,15.40
2022-10-11T17:28:50.048Z,15.30
2022-10-11T17:31:18.390Z,15.20
2022-10-11T17:33:46.852Z,15.10
2022-10-11T17:36:17.518Z,15.10
2022-10-11T17:38:46.991Z,15.00
2022-10-11T17:41:14.956Z,14.90
2022-10-11T17:43:43.429Z,14.90
2022-10-11T17:46:13.564Z,14.80
2022-10-11T17:48:41.934Z,14.80
2022-10-11T17:51:12.683Z,14.70
2022-10-11T17:53:40.670Z,14.70
2022-10-11T17:56:11.998Z,14.60
2022-10-11T17:58:40.166Z,14.60
2022-10-11T18:01:10.806Z,14.60
2022-10-11T18:03:39.307Z,14.50
2022-10-11T18:06:09.335Z,14.50
2022-10-11T18:08:40.670Z,14.40
2022-10-11T18:11:13.021Z,14.40
2022-10-11T18:13:43.198Z,14.30
2022-10-11T18:16:11.826Z,14.30
2022-10-11T18:18:40.615Z,14.30
2022-10-11T18:21:08.545Z,14.20
2022-10-11T18:23:38.153Z,14.20
2022-10-11T18:26:12.143Z,14.10
2022-10-11T18:28:40.593Z,14.10
2022-10-11T18:31:12.933Z,14.00
2022-10-11T18:33:42.399Z,14.00
2022-10-11T18:36:13.395Z,14.00
2022-10-11T18:38:45.988Z,14.00
2022-10-11T18:41:17.758Z,13.90
2022-10-11T18:43:50.180Z,13.90
2022-10-11T18:46:18.407Z,13.90
2022-10-11T18:48:47.837Z,13.90
2022-10-11T18:51:18.338Z,13.90
2022-10-11T18:53:47.036Z,13.90
2022-10-11T18:56:17.696Z,13.90
2022-10-11T18:58:45.793Z,13.80
2022-10-11T19:01:16.385Z,13.80
2022-10-11T19:03:45.268Z,13.80
2022-10-11T19:06:17.739Z,13.70
2022-10-11T19:08:46.346Z,13.70
2022-10-11T19:11:16.567Z,13.60
2022-10-11T19:13:44.957Z,13.60
2022-10-11T19:16:15.405Z,13.60
2022-10-11T19:18:44.575Z,13.50
2022-10-11T19:21:14.513Z,13.50
2022-10-11T19:23:44.555Z,13.50
2022-10-11T19:26:15.066Z,13.40
2022-10-11T19:28:44.746Z,13.40
2022-10-11T19:31:16.739Z,13.40
2022-10-11T19:33:47.916Z,13.30
2022-10-11T19:36:16.202Z,13.30
2022-10-11T19:38:45.889Z,13.20
2022-10-11T19:41:15.025Z,13.20
2022-10-11T19:43:44.325Z,13.20
2022-10-11T19:46:20.216Z,13.10
2022-10-11T19:48:55.667Z,13.10
2022-10-11T19:51:25.270Z,13.10
2022-10-11T19:53:56.801Z,13.10
2022-10-11T19:56:26.046Z,13.10
2022-10-11T19:58:55.794Z,13.10
2022-10-11T20:01:25.638Z,13.00
2022-10-11T20:03:55.449Z,13.00
2022-10-11T20:06:25.166Z,12.90
2022-10-11T20:09:16.733Z,12.90
2022-10-11T20:11:42.076Z,12.90
2022-10-11T20:14:11.335Z,12.90
2022-10-11T20:16:41.123Z,12.80
2022-10-11T20:19:09.329Z,12.80
2022-10-11T20:21:37.230Z,12.80
2022-10-11T20:24:08.345Z,12.80
2022-10-11T20:26:36.257Z,12.80
2022-10-11T20:29:04.268Z,12.70
2022-10-11T20:31:38.106Z,12.70
2022-10-11T20:34:07.354Z,12.60
2022-10-11T20:36:36.537Z,12.60
2022-10-11T20:39:06.294Z,12.60
2022-10-11T20:41:37.001Z,12.50
2022-10-11T20:44:05.743Z,12.50
2022-10-11T20:46:36.552Z,12.50
2022-10-11T20:49:07.168Z,12.50
2022-10-11T20:51:36.851Z,12.50
2022-10-11T20:54:05.609Z,12.50
2022-10-11T20:56:34.000Z,12.50
2022-10-11T20:59:02.215Z,12.40
2022-10-11T21:01:32.450Z,12.40
2022-10-11T21:04:03.033Z,12.40
2022-10-11T21:06:33.295Z,12.30
2022-10-11T21:09:01.605Z,12.30
2022-10-11T21:11:30.521Z,12.30
2022-10-11T21:13:59.019Z,12.30
2022-10-11T21:16:27.325Z,12.30
2022-10-11T21:18:57.288Z,12.30
2022-10-11T21:21:27.501Z,12.30
2022-10-11T21:23:55.852Z,12.20
2022-10-11T21:26:23.850Z,12.20
2022-10-11T21:28:51.891Z,12.20
2022-10-11T21:31:21.731Z,12.20
2022-10-11T21:33:50.018Z,12.10
2022-10-11T21:36:19.852Z,12.10
2022-10-11T21:38:49.812Z,12.00
2022-10-11T21:41:19.316Z,12.00
2022-10-11T21:43:47.603Z,12.00
2022-10-11T21:46:17.647Z,12.00
2022-10-11T21:48:45.600Z,12.00
2022-10-11T21:51:15.883Z,12.00
2022-10-11T21:53:43.947Z,12.00
2022-10-11T21:56:13.190Z,12.00
2022-10-11T21:58:41.197Z,12.00
2022-10-11T22:01:09.386Z,12.00
2022-10-11T22:03:37.295Z,11.90
2022-10-11T22:06:05.851Z,11.90
2022-10-11T22:08:33.873Z,11.90
2022-10-11T22:11:02.369Z,11.90
2022-10-11T22:13:33.342Z,11.80
2022-10-11T22:16:03.507Z,11.70
2022-10-11T22:18:33.655Z,11.60
2022-10-11T22:21:06.482Z,11.60
2022-10-11T22:23:34.908Z,11.60
2022-10-11T22:26:04.575Z,11.50
2022-10-11T22:28:34.038Z,11.50
2022-10-11T22:31:02.147Z,11.50
2022-10-11T22:33:30.144Z,11.50
2022-10-11T22:35:59.270Z,11.50
2022-10-11T22:38:28.479Z,11.40
2022-10-11T22:40:59.167Z,11.50
2022-10-11T22:43:27.099Z,11.50
2022-10-11T22:45:56.324Z,11.50
2022-10-11T22:48:24.270Z,11.50
2022-10-11T22:50:52.296Z,11.50
2022-10-11T22:53:20.364Z,11.50
2022-10-11T22:55:48.796Z,11.40
2022-10-11T22:58:16.872Z,11.40
2022-10-11T23:00:45.227Z,11.40
2022-10-11T23:03:15.516Z,11.40
2022-10-11T23:05:43.544Z,11.40
2022-10-11T23:08:11.579Z,11.40
2022-10-11T23:10:39.677Z,11.40
2022-10-11T23:13:07.579Z,11.40
2022-10-11T23:15:35.595Z,11.40
2022-10-11T23:18:03.603Z,11.40
2022-10-11T23:20:32.894Z,11.40
2022-10-11T23:23:00.783Z,11.40
2022-10-11T23:25:28.786Z,11.30
2022-10-11T23:27:56.721Z,11.30
2022-10-11T23:30:24.632Z,11.30
2022-10-11T23:32:52.649Z,11.30
2022-10-11T23:35:20.548Z,11.30
2022-10-11T23:37:49.850Z,11.30
2022-10-11T23:40:17.978Z,11.40
2022-10-11T23:42:45.860Z,11.40
2022-10-11T23:45:13.775Z,11.50
2022-10-11T23:47:41.824Z,11.50
2022-10-11T23:50:10.435Z,11.50
2022-10-11T23:52:38.377Z,11.50
2022-10-11T23:55:08.248Z,11.50
2022-10-11T23:57:36.551Z,11.40
